Time;durP1;ratioP1;P1;durP2;ratioP2;P2;SDS_P1;SDS_P2;PMS_P1;PMS_P2;Temp;Humidity;BMP_temperature;BMP_pressure;BME280_temperature;BME280_humidity;BME280_pressure;Samples;Min_cycle;Max_cycle;Signal;HPM_P1;HPM_P2
2022/10/30 00:06:50;;;;;;;4.20;2.37;;;;;;;;;;20771726;28;20685;-71
2022/10/30 00:16:52;;;;;;;5.57;2.40;;;;;;;;;;20799006;28;20210;-71
2022/10/30 00:26:54;;;;;;;4.10;2.13;;;;;;;;;;20799730;28;20664;-71
2022/10/30 00:36:56;;;;;;;2.90;2.33;;;;;;;;;;20784221;28;20575;-71
2022/10/30 00:47:03;;;;;;;4.37;2.10;;;16.60;99.90;;;;;;20802477;28;20557;-71
2022/10/30 00:57:07;;;;;;;5.77;2.10;;;;;;;;;;20812879;28;20214;-71
2022/10/30 01:07:11;;;;;;;3.67;1.97;;;16.60;99.90;;;;;;20839475;28;20218;-70
2022/10/30 01:17:26;;;;;;;4.63;2.30;;;;;;;;;;20817044;28;20582;-70
2022/10/30 01:27:41;;;;;;;3.80;2.00;;;16.40;99.90;;;;;;20828973;28;20605;-71
2022/10/30 01:38:05;;;;;;;4.20;2.40;;;16.40;99.90;;;;;;20816540;28;20218;-71
2022/10/30 01:48:10;;;;;;;6.10;2.57;;;;;;;;;;20811926;28;20276;-71
2022/10/30 01:58:34;;;;;;;4.40;2.10;;;16.10;99.90;;;;;;20812579;28;20276;-71
2022/10/30 02:08:38;;;;;;;3.70;2.03;;;;;;;;;;20790506;28;20230;-71
2022/10/30 02:18:40;;;;;;;3.20;1.80;;;;;;;;;;20782096;28;20206;-71
2022/10/30 02:28:43;;;;;;;4.90;2.10;;;;;;;;;;20781865;28;20262;-71
2022/10/30 02:38:46;;;;;;;2.90;1.60;;;;;;;;;;20821488;28;20223;-70
2022/10/30 02:48:48;;;;;;;4.80;1.93;;;;;;;;;;20800213;28;20276;-71
2022/10/30 02:58:50;;;;;;;3.07;1.70;;;;;;;;;;20811183;28;20605;-70
2022/10/30 03:08:53;;;;;;;3.33;1.63;;;;;;;;;;20811072;28;20265;-71
2022/10/30 03:18:56;;;;;;;4.10;1.90;;;15.60;99.90;;;;;;20780032;28;20245;-71
2022/10/30 03:28:58;;;;;;;8.00;2.03;;;;;;;;;;20808456;28;20768;-70
2022/10/30 03:39:01;;;;;;;4.73;2.00;;;;;;;;;;20824937;28;20276;-70
2022/10/30 03:49:05;;;;;;;6.80;2.43;;;;;;;;;;20791197;28;20257;-70
2022/10/30 03:59:07;;;;;;;2.63;1.80;;;;;;;;;;20790162;28;20280;-71
2022/10/30 04:09:13;;;;;;;4.23;2.00;;;;;;;;;;20805855;28;20219;-70
2022/10/30 04:19:18;;;;;;;2.33;1.67;;;;;;;;;;20821657;28;20284;-70
2022/10/30 04:29:20;;;;;;;3.40;1.97;;;;;;;;;;20789707;28;20223;-70
2022/10/30 04:39:22;;;;;;;3.30;1.53;;;;;;;;;;20770884;28;20214;-70
2022/10/30 04:49:29;;;;;;;3.17;1.40;;;;;;;;;;20771683;28;20230;-71
2022/10/30 04:59:31;;;;;;;2.60;1.40;;;;;;;;;;20786597;28;20218;-70
2022/10/30 05:09:34;;;;;;;3.10;1.50;;;;;;;;;;20803457;28;20234;-70
2022/10/30 05:19:35;;;;;;;6.47;1.80;;;;;;;;;;20770227;28;20211;-70
2022/10/30 05:29:37;;;;;;;2.40;1.50;;;;;;;;;;20784502;28;20214;-71
2022/10/30 05:39:39;;;;;;;2.30;1.50;;;;;;;;;;20785567;28;20218;-71
2022/10/30 05:49:49;;;;;;;4.87;1.47;;;;;;;;;;20877922;23;20217;-74
2022/10/30 05:59:55;;;;;;;4.87;1.20;;;;;;;;;;20850464;28;20214;-74
2022/10/30 06:09:56;;;;;;;1.03;0.80;;;;;;;;;;20812664;28;20219;-74
2022/10/30 06:20:11;;;;;;;1.40;0.77;;;;;;;;;;20820489;28;20219;-74
2022/10/30 06:30:39;;;;;;;1.00;0.80;;;14.30;99.90;;;;;;20791532;28;20788;-73
2022/10/30 06:40:42;;;;;;;1.73;0.90;;;;;;;;;;20846276;28;20227;-73
2022/10/30 06:51:02;;;;;;;1.53;1.00;;;;;;;;;;20839605;28;20218;-73
2022/10/30 07:01:07;;;;;;;2.37;1.10;;;;;;;;;;20811752;28;20219;-74
2022/10/30 07:11:28;;;;;;;1.90;1.20;;;;;;;;;;20820930;28;20312;-73
2022/10/30 07:21:49;;;;;;;2.23;1.17;;;;;;;;;;20813803;28;20223;-73
2022/10/30 07:31:52;;;;;;;6.47;2.17;;;;;;;;;;20874541;28;20222;-73
2022/10/30 07:42:32;;;;;;;5.43;2.43;;;14.60;99.90;;;;;;20825166;28;20225;-73
2022/10/30 07:52:47;;;;;;;3.43;1.80;;;15.00;99.90;;;;;;20834942;28;20226;-74
2022/10/30 08:02:56;;;;;;;3.00;1.50;;;;;;;;;;20833308;28;20207;-71
2022/10/30 08:13:04;;;;;;;3.63;1.43;;;;;;;;;;20802578;28;20214;-71
2022/10/30 08:23:06;;;;;;;4.53;1.80;;;;;;;;;;20803492;28;20198;-71
2022/10/30 08:33:12;;;;;;;3.43;1.83;;;15.70;99.90;;;;;;20819417;28;20295;-70
2022/10/30 08:43:18;;;;;;;2.67;1.53;;;;;;;;;;20818799;28;20219;-71
2022/10/30 08:53:19;;;;;;;3.67;2.10;;;;;;;;;;20817525;28;20210;-71
2022/10/30 09:03:22;;;;;;;4.63;1.73;;;;;;;;;;20801348;28;20579;-72
2022/10/30 09:13:42;;;;;;;3.23;1.67;;;;;;;;;;20816520;28;20619;-71
2022/10/30 09:23:44;;;;;;;3.63;1.60;;;;;;;;;;20830983;28;20783;-72
2022/10/30 09:34:15;;;;;;;3.73;1.73;;;;;;;;;;20771045;28;20284;-71
2022/10/30 09:44:31;;;;;;;3.33;1.60;;;;;;;;;;20831206;28;20226;-72
2022/10/30 09:54:54;;;;;;;3.00;1.63;;;17.20;99.90;;;;;;20831241;28;20218;-72
2022/10/30 10:05:08;;;;;;;2.77;1.50;;;17.40;99.90;;;;;;20828106;28;20214;-71
2022/10/30 10:15:41;;;;;;;2.73;1.70;;;;;;;;;;20828932;28;20218;-72
2022/10/30 10:25:49;;;;;;;2.50;1.43;;;;;;;;;;20829030;28;20648;-71
2022/10/30 10:36:10;;;;;;;3.80;1.40;;;17.80;99.90;;;;;;20827701;28;20219;-72
2022/10/30 10:46:12;;;;;;;2.80;1.33;;;;;;;;;;20827277;28;20333;-72
2022/10/30 10:56:13;;;;;;;6.77;1.97;;;;;;;;;;20825788;28;20207;-72
2022/10/30 11:06:20;;;;;;;2.37;1.30;;;;;;;;;;20825437;28;20226;-72
2022/10/30 11:16:28;;;;;;;4.03;1.73;;;18.20;99.90;;;;;;20825197;28;20214;-72
2022/10/30 11:26:32;;;;;;;4.07;1.50;;;18.50;99.90;;;;;;20824568;28;20284;-72
2022/10/30 11:36:35;;;;;;;3.13;1.37;;;18.60;99.90;;;;;;20823595;28;20674;-72
2022/10/30 11:46:37;;;;;;;3.30;1.70;;;19.00;99.90;;;;;;20823319;28;20230;-72
2022/10/30 11:56:45;;;;;;;3.57;1.20;;;;;;;;;;20823145;28;20210;-72
2022/10/30 12:06:47;;;;;;;4.67;1.47;;;;;;;;;;20819763;28;20218;-72
2022/10/30 12:16:55;;;;;;;2.63;1.20;;;18.60;99.90;;;;;;20820085;28;20202;-72
2022/10/30 12:27:00;;;;;;;3.77;1.77;;;;;;;;;;20819584;28;20268;-72
2022/10/30 12:37:41;;;;;;;3.77;1.10;;;19.10;99.90;;;;;;20819684;28;20261;-72
2022/10/30 12:47:51;;;;;;;3.13;1.40;;;19.30;99.90;;;;;;20754524;28;20281;-72
2022/10/30 12:57:53;;;;;;;2.87;1.53;;;;;;;;;;20817946;28;20202;-72
2022/10/30 13:07:58;;;;;;;3.40;1.20;;;;;;;;;;20816788;28;20643;-72
2022/10/30 13:18:19;;;;;;;3.07;1.00;;;19.60;99.90;;;;;;20817903;28;20211;-72
2022/10/30 13:28:21;;;;;;;3.73;1.37;;;;;;;;;;20817046;28;20231;-72
2022/10/30 13:38:42;;;;;;;4.30;1.50;;;19.40;99.90;;;;;;20817928;28;20705;-72
2022/10/30 13:49:02;;;;;;;2.03;1.00;;;;;;;;;;20815579;28;20226;-72
2022/10/30 13:59:16;;;;;;;2.73;1.17;;;19.40;99.90;;;;;;20800057;28;20203;-72
2022/10/30 14:09:38;;;;;;;3.73;1.10;;;19.40;99.90;;;;;;20827609;28;20214;-72
2022/10/30 14:20:04;;;;;;;3.90;1.17;;;19.30;99.90;;;;;;20830329;28;20674;-72
2022/10/30 14:30:19;;;;;;;2.30;1.00;;;19.00;99.90;;;;;;20829858;28;20222;-72
2022/10/30 14:40:34;;;;;;;1.37;0.77;;;;;;;;;;20827083;28;20203;-72
2022/10/30 14:50:35;;;;;;;2.53;1.20;;;;;;;;;;20827264;28;20276;-72
2022/10/30 15:00:39;;;;;;;2.37;1.20;;;;;;;;;;20826842;28;20227;-72
2022/10/30 15:10:59;;;;;;;5.07;1.20;;;18.90;99.90;;;;;;20824098;28;20211;-72
2022/10/30 15:21:05;;;;;;;3.70;1.17;;;;;;;;;;20826156;28;20222;-72
2022/10/30 15:31:23;;;;;;;3.43;1.13;;;;;;;;;;20824484;28;20689;-72
2022/10/30 15:41:26;;;;;;;4.97;1.20;;;;;;;;;;20823484;28;20268;-72
2022/10/30 15:51:27;;;;;;;3.53;1.10;;;;;;;;;;20805668;28;20272;-70
2022/10/30 16:01:37;;;;;;;2.33;1.07;;;18.30;99.90;;;;;;20822281;28;20233;-70
2022/10/30 16:11:39;;;;;;;4.00;1.50;;;;;;;;;;20820699;28;20237;-70
2022/10/30 16:21:45;;;;;;;1.70;1.10;;;18.10;99.90;;;;;;20820380;28;20265;-71
2022/10/30 16:31:48;;;;;;;2.67;0.90;;;17.90;99.90;;;;;;20817712;28;20211;-71
2022/10/30 16:41:50;;;;;;;2.80;1.17;;;17.90;99.90;;;;;;20820077;28;20225;-70
2022/10/30 16:51:57;;;;;;;2.70;1.40;;;;;;;;;;20815416;28;20210;-70
2022/10/30 17:02:04;;;;;;;2.63;1.13;;;17.70;99.90;;;;;;20815626;28;20214;-70
2022/10/30 17:12:15;;;;;;;3.37;1.33;;;;;;;;;;20812731;28;20215;-70
2022/10/30 17:22:19;;;;;;;4.30;1.40;;;;;;;;;;20785699;28;20244;-72
2022/10/30 17:32:23;;;;;;;2.93;1.30;;;;;;;;;;20791659;28;20271;-72
2022/10/30 17:42:25;;;;;;;3.23;1.43;;;;;;;;;;20795189;28;20257;-72
2022/10/30 17:52:27;;;;;;;3.93;1.37;;;;;;;;;;20859930;23;1088676;-68
2022/10/30 18:02:29;;;;;;;3.17;1.30;;;;;;;;;;20837265;28;20219;-68
2022/10/30 18:12:31;;;;;;;3.87;1.30;;;;;;;;;;20779383;28;20227;-68
2022/10/30 18:22:32;;;;;;;4.70;1.50;;;;;;;;;;20703957;28;20215;-67
2022/10/30 18:32:34;;;;;;;3.43;1.33;;;;;;;;;;20791032;28;20797;-67
2022/10/30 18:42:36;;;;;;;2.13;1.20;;;;;;;;;;20833494;28;20279;-68
2022/10/30 18:52:38;;;;;;;2.20;1.20;;;;;;;;;;20730853;28;20285;-68
2022/10/30 19:02:40;;;;;;;3.53;1.33;;;;;;;;;;20796486;28;20260;-68
2022/10/30 19:12:42;;;;;;;2.87;1.37;;;;;;;;;;20769376;28;20615;-66
2022/10/30 19:22:44;;;;;;;2.87;1.50;;;;;;;;;;20797588;28;20218;-67
2022/10/30 19:32:47;;;;;;;4.37;1.63;;;;;;;;;;20730892;28;20292;-66
2022/10/30 19:42:50;;;;;;;3.87;1.63;;;17.10;99.90;;;;;;20753049;28;20227;-67
2022/10/30 19:52:52;;;;;;;3.07;1.57;;;;;;;;;;20697701;28;20239;-67
2022/10/30 20:02:55;;;;;;;2.57;1.30;;;;;;;;;;20716513;28;20211;-67
2022/10/30 20:12:57;;;;;;;2.67;1.37;;;;;;;;;;20724164;28;20219;-68
2022/10/30 20:22:59;;;;;;;3.27;1.87;;;;;;;;;;20762787;28;20763;-68
2022/10/30 20:33:01;;;;;;;3.23;1.60;;;;;;;;;;20784254;28;20214;-68
2022/10/30 20:43:04;;;;;;;2.83;1.40;;;;;;;;;;20821819;28;20668;-68
2022/10/30 20:53:06;;;;;;;3.20;1.47;;;;;;;;;;20878193;28;20299;-67
2022/10/30 21:03:13;;;;;;;2.50;1.30;;;;;;;;;;20881310;28;20272;-67
2022/10/30 21:13:15;;;;;;;2.73;1.47;;;;;;;;;;20825455;28;20233;-67
2022/10/30 21:23:17;;;;;;;2.23;1.43;;;;;;;;;;20826928;28;20218;-67
2022/10/30 21:33:19;;;;;;;3.17;1.60;;;;;;;;;;20827086;28;20730;-67
2022/10/30 21:43:22;;;;;;;2.43;1.30;;;;;;;;;;20813994;28;20745;-66
2022/10/30 21:53:24;;;;;;;2.73;1.70;;;;;;;;;;20808112;28;20866;-66
2022/10/30 22:03:25;;;;;;;5.63;1.93;;;;;;;;;;20840587;28;20782;-66
2022/10/30 22:13:27;;;;;;;2.23;1.40;;;;;;;;;;20881080;28;20214;-67
2022/10/30 22:23:29;;;;;;;2.47;1.50;;;15.70;99.90;;;;;;20808908;28;20214;-67
2022/10/30 22:33:32;;;;;;;5.53;1.70;;;15.60;99.90;;;;;;20798200;28;20234;-66
2022/10/30 22:43:34;;;;;;;2.70;1.77;;;;;;;;;;20813330;28;20348;-67
2022/10/30 22:53:36;;;;;;;2.77;1.43;;;15.20;99.90;;;;;;20877654;28;20221;-67
2022/10/30 23:03:38;;;;;;;4.03;1.80;;;;;;;;;;20894936;28;20271;-67
2022/10/30 23:13:41;;;;;;;3.67;1.90;;;15.30;99.90;;;;;;20893712;28;20272;-67
2022/10/30 23:23:43;;;;;;;2.90;1.53;;;;;;;;;;20860857;28;20206;-66
2022/10/30 23:33:48;;;;;;;2.90;1.70;;;15.00;99.90;;;;;;20892437;28;20859;-66
2022/10/30 23:43:58;;;;;;;3.30;1.53;;;15.00;99.90;;;;;;20891674;28;20602;-66
2022/10/30 23:54:00;;;;;;;2.00;1.30;;;;;;;;;;20850063;22;20233;-72
